sensor_id;sensor_type;location;lat;lon;timestamp;P1;durP1;ratioP1;P2;durP2;ratioP2
75285;SDS011;63879;46.064;14.532;2023-06-24T06:00:44;2.67;;;2.47;;
75285;SDS011;63879;46.064;14.532;2023-06-24T06:03:09;3.13;;;2.83;;
75285;SDS011;63879;46.064;14.532;2023-06-24T06:05:36;2.05;;;1.92;;
75285;SDS011;63879;46.064;14.532;2023-06-24T06:08:01;3.60;;;2.53;;
75285;SDS011;63879;46.064;14.532;2023-06-24T06:10:26;3.38;;;2.28;;
75285;SDS011;63879;46.064;14.532;2023-06-24T06:12:52;3.60;;;2.17;;
75285;SDS011;63879;46.064;14.532;2023-06-24T06:15:18;2.58;;;2.38;;
75285;SDS011;63879;46.064;14.532;2023-06-24T06:17:44;3.83;;;2.35;;
75285;SDS011;63879;46.064;14.532;2023-06-24T06:20:10;3.03;;;2.58;;
75285;SDS011;63879;46.064;14.532;2023-06-24T06:22:36;3.85;;;3.53;;
75285;SDS011;63879;46.064;14.532;2023-06-24T06:25:03;2.60;;;2.08;;
75285;SDS011;63879;46.064;14.532;2023-06-24T06:29:55;2.90;;;2.70;;
75285;SDS011;63879;46.064;14.532;2023-06-24T06:32:20;3.43;;;3.23;;
75285;SDS011;63879;46.064;14.532;2023-06-24T06:34:46;3.10;;;2.70;;
75285;SDS011;63879;46.064;14.532;2023-06-24T06:37:11;4.18;;;3.10;;
75285;SDS011;63879;46.064;14.532;2023-06-24T06:39:37;3.23;;;2.93;;
75285;SDS011;63879;46.064;14.532;2023-06-24T06:42:02;3.90;;;3.60;;
75285;SDS011;63879;46.064;14.532;2023-06-24T06:44:27;3.28;;;2.85;;
75285;SDS011;63879;46.064;14.532;2023-06-24T06:46:53;4.27;;;2.87;;
75285;SDS011;63879;46.064;14.532;2023-06-24T06:49:18;4.68;;;4.28;;
75285;SDS011;63879;46.064;14.532;2023-06-24T06:51:43;4.10;;;3.63;;
75285;SDS011;63879;46.064;14.532;2023-06-24T06:54:09;3.20;;;2.97;;
75285;SDS011;63879;46.064;14.532;2023-06-24T06:56:34;3.13;;;2.93;;
75285;SDS011;63879;46.064;14.532;2023-06-24T06:58:59;3.87;;;3.03;;
75285;SDS011;63879;46.064;14.532;2023-06-24T07:01:25;4.03;;;3.73;;
75285;SDS011;63879;46.064;14.532;2023-06-24T07:03:50;3.37;;;2.77;;
75285;SDS011;63879;46.064;14.532;2023-06-24T07:06:17;3.58;;;3.28;;
75285;SDS011;63879;46.064;14.532;2023-06-24T07:08:44;3.30;;;2.95;;
75285;SDS011;63879;46.064;14.532;2023-06-24T07:11:09;4.03;;;3.60;;
75285;SDS011;63879;46.064;14.532;2023-06-24T07:13:34;4.63;;;2.90;;
75285;SDS011;63879;46.064;14.532;2023-06-24T07:16:00;4.05;;;2.83;;
75285;SDS011;63879;46.064;14.532;2023-06-24T07:18:25;3.05;;;2.38;;
75285;SDS011;63879;46.064;14.532;2023-06-24T07:20:55;2.75;;;2.55;;
75285;SDS011;63879;46.064;14.532;2023-06-24T07:23:20;2.50;;;2.30;;
75285;SDS011;63879;46.064;14.532;2023-06-24T07:25:45;3.43;;;3.13;;
75285;SDS011;63879;46.064;14.532;2023-06-24T07:28:11;4.18;;;3.78;;
75285;SDS011;63879;46.064;14.532;2023-06-24T07:30:36;3.13;;;2.83;;
75285;SDS011;63879;46.064;14.532;2023-06-24T07:33:02;3.80;;;2.47;;
75285;SDS011;63879;46.064;14.532;2023-06-24T07:35:31;4.63;;;4.25;;
75285;SDS011;63879;46.064;14.532;2023-06-24T07:37:57;5.32;;;2.92;;
75285;SDS011;63879;46.064;14.532;2023-06-24T07:40:22;4.03;;;2.75;;
75285;SDS011;63879;46.064;14.532;2023-06-24T07:42:48;3.60;;;2.80;;
75285;SDS011;63879;46.064;14.532;2023-06-24T07:45:13;2.43;;;2.23;;
75285;SDS011;63879;46.064;14.532;2023-06-24T07:47:39;4.00;;;3.67;;
75285;SDS011;63879;46.064;14.532;2023-06-24T07:50:04;5.95;;;3.30;;
75285;SDS011;63879;46.064;14.532;2023-06-24T07:52:31;3.47;;;3.17;;
75285;SDS011;63879;46.064;14.532;2023-06-24T07:54:56;5.63;;;3.70;;
75285;SDS011;63879;46.064;14.532;2023-06-24T07:57:22;3.85;;;3.65;;
75285;SDS011;63879;46.064;14.532;2023-06-24T07:59:47;4.25;;;3.47;;
75285;SDS011;63879;46.064;14.532;2023-06-24T08:02:12;3.50;;;3.20;;
75285;SDS011;63879;46.064;14.532;2023-06-24T08:04:38;2.40;;;2.20;;
75285;SDS011;63879;46.064;14.532;2023-06-24T08:07:03;3.33;;;3.03;;
75285;SDS011;63879;46.064;14.532;2023-06-24T08:09:29;3.05;;;2.85;;
75285;SDS011;63879;46.064;14.532;2023-06-24T08:11:55;3.10;;;2.80;;
75285;SDS011;63879;46.064;14.532;2023-06-24T08:14:20;4.80;;;4.40;;
75285;SDS011;63879;46.064;14.532;2023-06-24T08:16:45;4.33;;;3.93;;
75285;SDS011;63879;46.064;14.532;2023-06-24T08:19:11;3.33;;;2.90;;
75285;SDS011;63879;46.064;14.532;2023-06-24T08:21:36;3.00;;;2.80;;
75285;SDS011;63879;46.064;14.532;2023-06-24T08:24:03;3.20;;;3.00;;
75285;SDS011;63879;46.064;14.532;2023-06-24T08:26:29;3.13;;;2.92;;
75285;SDS011;63879;46.064;14.532;2023-06-24T08:28:54;4.45;;;3.42;;
75285;SDS011;63879;46.064;14.532;2023-06-24T08:31:19;3.83;;;3.53;;
75285;SDS011;63879;46.064;14.532;2023-06-24T08:33:47;3.28;;;3.00;;
75285;SDS011;63879;46.064;14.532;2023-06-24T08:36:17;2.63;;;2.42;;
75285;SDS011;63879;46.064;14.532;2023-06-24T08:38:42;3.20;;;2.83;;
75285;SDS011;63879;46.064;14.532;2023-06-24T08:41:08;4.77;;;4.37;;
75285;SDS011;63879;46.064;14.532;2023-06-24T08:43:33;2.65;;;2.45;;
75285;SDS011;63879;46.064;14.532;2023-06-24T08:45:59;3.92;;;3.63;;
75285;SDS011;63879;46.064;14.532;2023-06-24T08:48:24;3.07;;;2.87;;
75285;SDS011;63879;46.064;14.532;2023-06-24T08:50:51;3.00;;;2.78;;
75285;SDS011;63879;46.064;14.532;2023-06-24T08:53:18;2.83;;;2.63;;
75285;SDS011;63879;46.064;14.532;2023-06-24T08:55:44;3.50;;;3.20;;
75285;SDS011;63879;46.064;14.532;2023-06-24T08:58:10;4.55;;;4.15;;
75285;SDS011;63879;46.064;14.532;2023-06-24T09:00:36;4.47;;;4.07;;
75285;SDS011;63879;46.064;14.532;2023-06-24T09:03:01;3.55;;;3.25;;
75285;SDS011;63879;46.064;14.532;2023-06-24T09:05:27;5.22;;;4.85;;
75285;SDS011;63879;46.064;14.532;2023-06-24T09:07:52;4.88;;;4.53;;
75285;SDS011;63879;46.064;14.532;2023-06-24T09:10:30;4.93;;;4.53;;
75285;SDS011;63879;46.064;14.532;2023-06-24T09:12:57;6.88;;;6.47;;
75285;SDS011;63879;46.064;14.532;2023-06-24T09:15:23;7.45;;;7.05;;
75285;SDS011;63879;46.064;14.532;2023-06-24T09:17:48;3.97;;;3.77;;
75285;SDS011;63879;46.064;14.532;2023-06-24T09:20:13;3.70;;;3.40;;
75285;SDS011;63879;46.064;14.532;2023-06-24T09:22:42;4.10;;;3.80;;
75285;SDS011;63879;46.064;14.532;2023-06-24T09:25:07;4.88;;;3.10;;
75285;SDS011;63879;46.064;14.532;2023-06-24T09:27:32;4.00;;;3.63;;
75285;SDS011;63879;46.064;14.532;2023-06-24T09:29:58;4.07;;;3.58;;
75285;SDS011;63879;46.064;14.532;2023-06-24T09:32:30;4.63;;;4.32;;
75285;SDS011;63879;46.064;14.532;2023-06-24T09:34:56;7.22;;;6.82;;
75285;SDS011;63879;46.064;14.532;2023-06-24T09:37:21;6.32;;;6.03;;
75285;SDS011;63879;46.064;14.532;2023-06-24T09:39:52;7.68;;;7.30;;
75285;SDS011;63879;46.064;14.532;2023-06-24T09:42:20;4.82;;;4.53;;
75285;SDS011;63879;46.064;14.532;2023-06-24T09:44:52;5.57;;;5.18;;
75285;SDS011;63879;46.064;14.532;2023-06-24T09:47:18;5.32;;;5.03;;
75285;SDS011;63879;46.064;14.532;2023-06-24T09:49:43;6.03;;;5.73;;
75285;SDS011;63879;46.064;14.532;2023-06-24T09:52:08;8.07;;;7.47;;
75285;SDS011;63879;46.064;14.532;2023-06-24T09:54:34;6.07;;;5.68;;
75285;SDS011;63879;46.064;14.532;2023-06-24T09:57:01;5.65;;;5.35;;
75285;SDS011;63879;46.064;14.532;2023-06-24T09:59:28;4.18;;;3.95;;
75285;SDS011;63879;46.064;14.532;2023-06-24T10:04:20;5.63;;;5.13;;
75285;SDS011;63879;46.064;14.532;2023-06-24T10:06:47;5.00;;;4.70;;
75285;SDS011;63879;46.064;14.532;2023-06-24T10:09:13;3.97;;;3.70;;
75285;SDS011;63879;46.064;14.532;2023-06-24T10:11:41;6.53;;;6.20;;
75285;SDS011;63879;46.064;14.532;2023-06-24T10:14:07;4.85;;;4.55;;
75285;SDS011;63879;46.064;14.532;2023-06-24T10:16:33;4.67;;;4.37;;
75285;SDS011;63879;46.064;14.532;2023-06-24T10:19:02;4.85;;;4.55;;
75285;SDS011;63879;46.064;14.532;2023-06-24T10:21:43;4.63;;;4.32;;
75285;SDS011;63879;46.064;14.532;2023-06-24T10:24:30;4.80;;;4.40;;
75285;SDS011;63879;46.064;14.532;2023-06-24T10:27:03;5.35;;;5.10;;
75285;SDS011;63879;46.064;14.532;2023-06-24T10:29:33;4.07;;;3.88;;
75285;SDS011;63879;46.064;14.532;2023-06-24T10:32:02;4.35;;;4.00;;
75285;SDS011;63879;46.064;14.532;2023-06-24T10:34:39;4.43;;;4.13;;
75285;SDS011;63879;46.064;14.532;2023-06-24T10:37:19;5.97;;;5.55;;
75285;SDS011;63879;46.064;14.532;2023-06-24T10:39:52;3.25;;;3.05;;
75285;SDS011;63879;46.064;14.532;2023-06-24T10:42:25;4.60;;;4.18;;
75285;SDS011;63879;46.064;14.532;2023-06-24T10:44:50;3.67;;;3.35;;
75285;SDS011;63879;46.064;14.532;2023-06-24T10:47:17;3.55;;;3.35;;
75285;SDS011;63879;46.064;14.532;2023-06-24T10:49:42;4.32;;;3.95;;
75285;SDS011;63879;46.064;14.532;2023-06-24T10:52:11;5.13;;;4.83;;
75285;SDS011;63879;46.064;14.532;2023-06-24T10:54:37;4.00;;;3.80;;
75285;SDS011;63879;46.064;14.532;2023-06-24T10:57:03;4.50;;;3.30;;
75285;SDS011;63879;46.064;14.532;2023-06-24T10:59:33;4.03;;;3.83;;
75285;SDS011;63879;46.064;14.532;2023-06-24T11:01:59;3.88;;;3.67;;
75285;SDS011;63879;46.064;14.532;2023-06-24T11:04:24;4.00;;;3.80;;
75285;SDS011;63879;46.064;14.532;2023-06-24T11:06:58;3.92;;;3.72;;
75285;SDS011;63879;46.064;14.532;2023-06-24T11:11:49;3.37;;;3.17;;
75285;SDS011;63879;46.064;14.532;2023-06-24T11:14:15;4.75;;;4.45;;
75285;SDS011;63879;46.064;14.532;2023-06-24T11:16:41;4.90;;;4.70;;
75285;SDS011;63879;46.064;14.532;2023-06-24T11:19:06;5.63;;;5.22;;
75285;SDS011;63879;46.064;14.532;2023-06-24T11:21:32;3.60;;;3.40;;
75285;SDS011;63879;46.064;14.532;2023-06-24T11:24:01;3.28;;;3.08;;
75285;SDS011;63879;46.064;14.532;2023-06-24T11:26:27;4.75;;;4.35;;
75285;SDS011;63879;46.064;14.532;2023-06-24T11:28:53;4.32;;;3.83;;
75285;SDS011;63879;46.064;14.532;2023-06-24T11:31:18;3.45;;;3.17;;
75285;SDS011;63879;46.064;14.532;2023-06-24T11:33:48;3.72;;;3.53;;
75285;SDS011;63879;46.064;14.532;2023-06-24T11:36:17;4.80;;;4.50;;
75285;SDS011;63879;46.064;14.532;2023-06-24T11:38:45;3.45;;;3.25;;
75285;SDS011;63879;46.064;14.532;2023-06-24T11:41:11;4.15;;;3.95;;
75285;SDS011;63879;46.064;14.532;2023-06-24T11:43:36;4.55;;;4.35;;
75285;SDS011;63879;46.064;14.532;2023-06-24T11:46:02;3.73;;;3.50;;
75285;SDS011;63879;46.064;14.532;2023-06-24T11:48:28;4.68;;;4.47;;
75285;SDS011;63879;46.064;14.532;2023-06-24T11:51:03;4.45;;;4.15;;
75285;SDS011;63879;46.064;14.532;2023-06-24T11:53:29;4.93;;;4.73;;
75285;SDS011;63879;46.064;14.532;2023-06-24T11:58:21;5.03;;;4.82;;
75285;SDS011;63879;46.064;14.532;2023-06-24T12:00:48;6.22;;;6.03;;
75285;SDS011;63879;46.064;14.532;2023-06-24T12:03:18;3.55;;;3.45;;
75285;SDS011;63879;46.064;14.532;2023-06-24T12:05:47;3.58;;;3.47;;
75285;SDS011;63879;46.064;14.532;2023-06-24T12:08:13;2.60;;;2.50;;
75285;SDS011;63879;46.064;14.532;2023-06-24T12:10:42;2.22;;;2.13;;
75285;SDS011;63879;46.064;14.532;2023-06-24T12:13:08;2.58;;;2.47;;
75285;SDS011;63879;46.064;14.532;2023-06-24T12:15:34;1.88;;;1.77;;
75285;SDS011;63879;46.064;14.532;2023-06-24T12:17:59;2.53;;;2.42;;
75285;SDS011;63879;46.064;14.532;2023-06-24T12:20:26;1.27;;;1.27;;
75285;SDS011;63879;46.064;14.532;2023-06-24T12:22:51;2.28;;;2.17;;
75285;SDS011;63879;46.064;14.532;2023-06-24T12:25:17;2.27;;;2.17;;
75285;SDS011;63879;46.064;14.532;2023-06-24T12:27:43;2.05;;;1.95;;
75285;SDS011;63879;46.064;14.532;2023-06-24T12:30:09;1.98;;;1.88;;
75285;SDS011;63879;46.064;14.532;2023-06-24T12:32:35;1.95;;;1.92;;
75285;SDS011;63879;46.064;14.532;2023-06-24T12:35:01;1.60;;;1.50;;
75285;SDS011;63879;46.064;14.532;2023-06-24T12:37:29;1.75;;;1.65;;
75285;SDS011;63879;46.064;14.532;2023-06-24T12:39:56;3.55;;;3.35;;
75285;SDS011;63879;46.064;14.532;2023-06-24T12:42:21;2.85;;;2.65;;
75285;SDS011;63879;46.064;14.532;2023-06-24T12:44:46;1.87;;;1.77;;
75285;SDS011;63879;46.064;14.532;2023-06-24T12:47:12;2.30;;;2.20;;
75285;SDS011;63879;46.064;14.532;2023-06-24T12:49:37;3.27;;;2.90;;
75285;SDS011;63879;46.064;14.532;2023-06-24T12:52:02;2.33;;;2.23;;
75285;SDS011;63879;46.064;14.532;2023-06-24T12:54:28;3.15;;;3.03;;
75285;SDS011;63879;46.064;14.532;2023-06-24T12:56:53;2.70;;;2.60;;
75285;SDS011;63879;46.064;14.532;2023-06-24T12:59:19;2.67;;;2.58;;
75285;SDS011;63879;46.064;14.532;2023-06-24T13:01:44;1.63;;;1.53;;
75285;SDS011;63879;46.064;14.532;2023-06-24T13:04:10;1.40;;;1.40;;
75285;SDS011;63879;46.064;14.532;2023-06-24T13:06:36;3.30;;;3.20;;
75285;SDS011;63879;46.064;14.532;2023-06-24T13:09:01;2.38;;;2.28;;
75285;SDS011;63879;46.064;14.532;2023-06-24T13:11:27;1.55;;;1.55;;
75285;SDS011;63879;46.064;14.532;2023-06-24T13:13:52;3.07;;;2.97;;
75285;SDS011;63879;46.064;14.532;2023-06-24T13:16:18;2.17;;;2.07;;
75285;SDS011;63879;46.064;14.532;2023-06-24T13:18:43;3.08;;;2.97;;
75285;SDS011;63879;46.064;14.532;2023-06-24T13:21:09;2.70;;;2.57;;
75285;SDS011;63879;46.064;14.532;2023-06-24T13:23:34;2.53;;;2.42;;
75285;SDS011;63879;46.064;14.532;2023-06-24T13:26:02;2.15;;;2.05;;
75285;SDS011;63879;46.064;14.532;2023-06-24T13:28:27;2.72;;;2.63;;
75285;SDS011;63879;46.064;14.532;2023-06-24T13:30:53;2.57;;;2.47;;
75285;SDS011;63879;46.064;14.532;2023-06-24T13:33:19;3.95;;;3.83;;
75285;SDS011;63879;46.064;14.532;2023-06-24T13:35:45;3.78;;;3.67;;
75285;SDS011;63879;46.064;14.532;2023-06-24T13:38:10;2.33;;;2.22;;
75285;SDS011;63879;46.064;14.532;2023-06-24T13:40:37;2.53;;;2.42;;
75285;SDS011;63879;46.064;14.532;2023-06-24T13:43:02;2.33;;;2.22;;
75285;SDS011;63879;46.064;14.532;2023-06-24T13:45:28;3.35;;;3.25;;
75285;SDS011;63879;46.064;14.532;2023-06-24T13:47:53;2.35;;;2.25;;
75285;SDS011;63879;46.064;14.532;2023-06-24T13:50:20;2.67;;;2.58;;
75285;SDS011;63879;46.064;14.532;2023-06-24T13:52:45;2.72;;;2.63;;
75285;SDS011;63879;46.064;14.532;2023-06-24T13:55:11;4.07;;;3.97;;
75285;SDS011;63879;46.064;14.532;2023-06-24T13:57:36;3.13;;;2.92;;
75285;SDS011;63879;46.064;14.532;2023-06-24T14:00:02;2.40;;;2.30;;
75285;SDS011;63879;46.064;14.532;2023-06-24T14:02:28;2.72;;;2.63;;
75285;SDS011;63879;46.064;14.532;2023-06-24T14:04:53;4.88;;;4.68;;
75285;SDS011;63879;46.064;14.532;2023-06-24T14:07:19;4.85;;;4.68;;
75285;SDS011;63879;46.064;14.532;2023-06-24T14:09:44;2.13;;;2.03;;
75285;SDS011;63879;46.064;14.532;2023-06-24T14:12:09;2.03;;;1.95;;
75285;SDS011;63879;46.064;14.532;2023-06-24T14:14:35;1.73;;;1.52;;
75285;SDS011;63879;46.064;14.532;2023-06-24T14:17:04;1.23;;;1.23;;
75285;SDS011;63879;46.064;14.532;2023-06-24T14:19:34;1.33;;;1.33;;
75285;SDS011;63879;46.064;14.532;2023-06-24T14:22:00;3.10;;;2.60;;
75285;SDS011;63879;46.064;14.532;2023-06-24T14:24:26;1.80;;;1.77;;
75285;SDS011;63879;46.064;14.532;2023-06-24T14:26:52;2.78;;;2.67;;
75285;SDS011;63879;46.064;14.532;2023-06-24T14:29:17;1.42;;;1.35;;
75285;SDS011;63879;46.064;14.532;2023-06-24T14:31:43;2.80;;;2.70;;
75285;SDS011;63879;46.064;14.532;2023-06-24T14:34:08;2.40;;;2.30;;
75285;SDS011;63879;46.064;14.532;2023-06-24T14:36:34;2.67;;;2.58;;
75285;SDS011;63879;46.064;14.532;2023-06-24T14:39:00;3.17;;;3.08;;
75285;SDS011;63879;46.064;14.532;2023-06-24T14:41:25;1.97;;;1.87;;
75285;SDS011;63879;46.064;14.532;2023-06-24T14:43:50;1.83;;;1.60;;
75285;SDS011;63879;46.064;14.532;2023-06-24T14:46:16;1.93;;;1.83;;
75285;SDS011;63879;46.064;14.532;2023-06-24T14:48:41;1.90;;;1.80;;
75285;SDS011;63879;46.064;14.532;2023-06-24T14:51:06;3.30;;;3.20;;
75285;SDS011;63879;46.064;14.532;2023-06-24T14:53:32;2.80;;;2.70;;
75285;SDS011;63879;46.064;14.532;2023-06-24T14:55:57;2.95;;;2.85;;
75285;SDS011;63879;46.064;14.532;2023-06-24T14:58:22;1.70;;;1.60;;
75285;SDS011;63879;46.064;14.532;2023-06-24T15:00:48;2.07;;;1.97;;
75285;SDS011;63879;46.064;14.532;2023-06-24T15:03:13;1.60;;;1.60;;
75285;SDS011;63879;46.064;14.532;2023-06-24T15:05:39;2.30;;;2.20;;
75285;SDS011;63879;46.064;14.532;2023-06-24T15:08:04;2.08;;;2.03;;
75285;SDS011;63879;46.064;14.532;2023-06-24T15:10:30;2.75;;;2.65;;
75285;SDS011;63879;46.064;14.532;2023-06-24T15:12:55;2.05;;;2.00;;
75285;SDS011;63879;46.064;14.532;2023-06-24T15:15:21;2.55;;;2.45;;
75285;SDS011;63879;46.064;14.532;2023-06-24T15:17:46;2.05;;;1.95;;
75285;SDS011;63879;46.064;14.532;2023-06-24T15:20:12;1.60;;;1.50;;
75285;SDS011;63879;46.064;14.532;2023-06-24T15:22:37;2.42;;;2.33;;
75285;SDS011;63879;46.064;14.532;2023-06-24T15:25:03;2.30;;;2.20;;
75285;SDS011;63879;46.064;14.532;2023-06-24T15:27:30;3.08;;;2.97;;
75285;SDS011;63879;46.064;14.532;2023-06-24T15:29:55;2.25;;;2.15;;
75285;SDS011;63879;46.064;14.532;2023-06-24T15:32:20;1.43;;;1.43;;
75285;SDS011;63879;46.064;14.532;2023-06-24T15:34:46;2.28;;;2.17;;
75285;SDS011;63879;46.064;14.532;2023-06-24T15:37:11;1.37;;;1.37;;
75285;SDS011;63879;46.064;14.532;2023-06-24T15:39:39;2.15;;;2.05;;
75285;SDS011;63879;46.064;14.532;2023-06-24T15:42:05;2.17;;;2.08;;
75285;SDS011;63879;46.064;14.532;2023-06-24T15:44:31;2.28;;;2.17;;
75285;SDS011;63879;46.064;14.532;2023-06-24T15:46:56;2.17;;;2.08;;
75285;SDS011;63879;46.064;14.532;2023-06-24T15:49:21;2.60;;;2.50;;
75285;SDS011;63879;46.064;14.532;2023-06-24T15:51:47;2.60;;;2.50;;
75285;SDS011;63879;46.064;14.532;2023-06-24T15:54:12;2.23;;;2.13;;
75285;SDS011;63879;46.064;14.532;2023-06-24T15:56:38;3.47;;;3.38;;
75285;SDS011;63879;46.064;14.532;2023-06-24T15:59:03;2.03;;;1.92;;
75285;SDS011;63879;46.064;14.532;2023-06-24T16:01:29;3.03;;;2.92;;
75285;SDS011;63879;46.064;14.532;2023-06-24T16:03:54;2.42;;;2.33;;
75285;SDS011;63879;46.064;14.532;2023-06-24T16:06:19;2.00;;;1.90;;
75285;SDS011;63879;46.064;14.532;2023-06-24T16:08:45;3.90;;;3.80;;
75285;SDS011;63879;46.064;14.532;2023-06-24T16:11:10;3.07;;;2.87;;
75285;SDS011;63879;46.064;14.532;2023-06-24T16:13:36;2.05;;;1.83;;
75285;SDS011;63879;46.064;14.532;2023-06-24T16:16:01;3.75;;;3.55;;
75285;SDS011;63879;46.064;14.532;2023-06-24T16:18:27;3.47;;;3.28;;
75285;SDS011;63879;46.064;14.532;2023-06-24T16:20:52;2.65;;;2.55;;
75285;SDS011;63879;46.064;14.532;2023-06-24T16:23:18;3.97;;;3.77;;
75285;SDS011;63879;46.064;14.532;2023-06-24T16:25:43;2.90;;;2.80;;
75285;SDS011;63879;46.064;14.532;2023-06-24T16:28:08;1.98;;;1.88;;
75285;SDS011;63879;46.064;14.532;2023-06-24T16:30:34;1.77;;;1.77;;
75285;SDS011;63879;46.064;14.532;2023-06-24T16:32:59;2.53;;;2.43;;
75285;SDS011;63879;46.064;14.532;2023-06-24T16:35:24;2.20;;;2.10;;
75285;SDS011;63879;46.064;14.532;2023-06-24T16:37:50;2.60;;;2.50;;
75285;SDS011;63879;46.064;14.532;2023-06-24T16:40:15;2.13;;;2.03;;
75285;SDS011;63879;46.064;14.532;2023-06-24T16:42:41;1.67;;;1.67;;
75285;SDS011;63879;46.064;14.532;2023-06-24T16:45:06;2.20;;;2.10;;
75285;SDS011;63879;46.064;14.532;2023-06-24T16:47:32;1.65;;;1.55;;
75285;SDS011;63879;46.064;14.532;2023-06-24T16:49:57;2.43;;;2.33;;
75285;SDS011;63879;46.064;14.532;2023-06-24T16:52:24;3.40;;;3.30;;
75285;SDS011;63879;46.064;14.532;2023-06-24T16:54:49;1.85;;;1.83;;
75285;SDS011;63879;46.064;14.532;2023-06-24T16:57:15;2.80;;;2.70;;
75285;SDS011;63879;46.064;14.532;2023-06-24T16:59:40;2.20;;;2.10;;
75285;SDS011;63879;46.064;14.532;2023-06-24T17:02:06;3.72;;;3.58;;
75285;SDS011;63879;46.064;14.532;2023-06-24T17:04:31;2.00;;;1.90;;
75285;SDS011;63879;46.064;14.532;2023-06-24T17:06:56;2.45;;;2.35;;
75285;SDS011;63879;46.064;14.532;2023-06-24T17:09:22;2.78;;;2.67;;
75285;SDS011;63879;46.064;14.532;2023-06-24T17:11:47;2.00;;;1.90;;
75285;SDS011;63879;46.064;14.532;2023-06-24T17:14:12;2.40;;;2.30;;
75285;SDS011;63879;46.064;14.532;2023-06-24T17:16:38;1.67;;;1.57;;
75285;SDS011;63879;46.064;14.532;2023-06-24T17:19:03;1.90;;;1.80;;
75285;SDS011;63879;46.064;14.532;2023-06-24T17:21:30;2.50;;;2.40;;
75285;SDS011;63879;46.064;14.532;2023-06-24T17:23:56;2.83;;;2.72;;
75285;SDS011;63879;46.064;14.532;2023-06-24T17:26:21;1.83;;;1.83;;
75285;SDS011;63879;46.064;14.532;2023-06-24T17:28:47;2.67;;;2.58;;
75285;SDS011;63879;46.064;14.532;2023-06-24T17:31:12;2.03;;;1.92;;
75285;SDS011;63879;46.064;14.532;2023-06-24T17:33:38;1.93;;;1.83;;
75285;SDS011;63879;46.064;14.532;2023-06-24T17:36:03;2.45;;;1.73;;
75285;SDS011;63879;46.064;14.532;2023-06-24T17:38:29;1.50;;;1.40;;
75285;SDS011;63879;46.064;14.532;2023-06-24T17:40:54;2.22;;;2.13;;
75285;SDS011;63879;46.064;14.532;2023-06-24T17:43:20;1.57;;;1.57;;
75285;SDS011;63879;46.064;14.532;2023-06-24T17:45:45;1.53;;;1.43;;
75285;SDS011;63879;46.064;14.532;2023-06-24T17:48:11;1.60;;;1.50;;
75285;SDS011;63879;46.064;14.532;2023-06-24T17:50:36;2.63;;;2.47;;
75285;SDS011;63879;46.064;14.532;2023-06-24T17:53:02;1.23;;;1.23;;
75285;SDS011;63879;46.064;14.532;2023-06-24T17:55:27;3.13;;;3.03;;
75285;SDS011;63879;46.064;14.532;2023-06-24T17:57:57;1.85;;;1.73;;
75285;SDS011;63879;46.064;14.532;2023-06-24T18:00:22;2.10;;;2.00;;
75285;SDS011;63879;46.064;14.532;2023-06-24T18:02:48;1.87;;;1.87;;
75285;SDS011;63879;46.064;14.532;2023-06-24T18:05:13;2.80;;;2.70;;
75285;SDS011;63879;46.064;14.532;2023-06-24T18:07:38;1.27;;;1.27;;
75285;SDS011;63879;46.064;14.532;2023-06-24T18:10:04;3.33;;;3.10;;
75285;SDS011;63879;46.064;14.532;2023-06-24T18:12:29;2.17;;;2.08;;
75285;SDS011;63879;46.064;14.532;2023-06-24T18:14:55;1.30;;;1.30;;
75285;SDS011;63879;46.064;14.532;2023-06-24T18:17:20;1.65;;;1.58;;
75285;SDS011;63879;46.064;14.532;2023-06-24T18:19:46;1.83;;;1.70;;
75285;SDS011;63879;46.064;14.532;2023-06-24T18:22:12;2.20;;;2.10;;
75285;SDS011;63879;46.064;14.532;2023-06-24T18:24:37;1.87;;;1.77;;
75285;SDS011;63879;46.064;14.532;2023-06-24T18:27:03;1.38;;;1.27;;
75285;SDS011;63879;46.064;14.532;2023-06-24T18:29:29;1.83;;;1.75;;
75285;SDS011;63879;46.064;14.532;2023-06-24T18:31:54;2.30;;;2.20;;
75285;SDS011;63879;46.064;14.532;2023-06-24T18:34:19;2.10;;;2.00;;
75285;SDS011;63879;46.064;14.532;2023-06-24T18:36:45;1.90;;;1.80;;
75285;SDS011;63879;46.064;14.532;2023-06-24T18:39:11;1.58;;;1.58;;
75285;SDS011;63879;46.064;14.532;2023-06-24T18:41:36;2.23;;;2.13;;
75285;SDS011;63879;46.064;14.532;2023-06-24T18:44:02;2.75;;;2.55;;
75285;SDS011;63879;46.064;14.532;2023-06-24T18:48:55;1.73;;;1.70;;
75285;SDS011;63879;46.064;14.532;2023-06-24T18:51:20;2.67;;;1.53;;
75285;SDS011;63879;46.064;14.532;2023-06-24T18:53:46;2.45;;;2.35;;
75285;SDS011;63879;46.064;14.532;2023-06-24T18:56:11;2.03;;;1.92;;
75285;SDS011;63879;46.064;14.532;2023-06-24T18:58:37;2.03;;;1.92;;
75285;SDS011;63879;46.064;14.532;2023-06-24T19:01:02;1.40;;;1.40;;
75285;SDS011;63879;46.064;14.532;2023-06-24T19:03:29;2.20;;;2.10;;
75285;SDS011;63879;46.064;14.532;2023-06-24T19:05:54;3.07;;;2.97;;
75285;SDS011;63879;46.064;14.532;2023-06-24T19:08:20;3.00;;;2.80;;
75285;SDS011;63879;46.064;14.532;2023-06-24T19:10:46;1.90;;;1.80;;
75285;SDS011;63879;46.064;14.532;2023-06-24T19:13:12;1.92;;;1.83;;
75285;SDS011;63879;46.064;14.532;2023-06-24T19:15:37;1.25;;;1.17;;
75285;SDS011;63879;46.064;14.532;2023-06-24T19:18:03;2.28;;;2.08;;
75285;SDS011;63879;46.064;14.532;2023-06-24T19:20:28;1.83;;;1.73;;
75285;SDS011;63879;46.064;14.532;2023-06-24T19:22:53;2.10;;;2.00;;
75285;SDS011;63879;46.064;14.532;2023-06-24T19:25:19;2.20;;;2.10;;
75285;SDS011;63879;46.064;14.532;2023-06-24T19:27:44;2.05;;;2.00;;
75285;SDS011;63879;46.064;14.532;2023-06-24T19:30:10;2.50;;;2.40;;
75285;SDS011;63879;46.064;14.532;2023-06-24T19:32:35;2.40;;;2.30;;
75285;SDS011;63879;46.064;14.532;2023-06-24T19:35:01;1.83;;;1.73;;
75285;SDS011;63879;46.064;14.532;2023-06-24T19:37:26;1.52;;;1.42;;
75285;SDS011;63879;46.064;14.532;2023-06-24T19:39:59;2.03;;;1.95;;
75285;SDS011;63879;46.064;14.532;2023-06-24T19:42:25;2.25;;;2.15;;
75285;SDS011;63879;46.064;14.532;2023-06-24T19:44:50;2.03;;;1.93;;
75285;SDS011;63879;46.064;14.532;2023-06-24T19:47:16;1.70;;;1.60;;
75285;SDS011;63879;46.064;14.532;2023-06-24T19:49:52;1.65;;;1.55;;
75285;SDS011;63879;46.064;14.532;2023-06-24T19:52:18;1.98;;;1.88;;
75285;SDS011;63879;46.064;14.532;2023-06-24T19:54:44;9.18;;;2.33;;
75285;SDS011;63879;46.064;14.532;2023-06-24T19:57:10;2.05;;;1.95;;
75285;SDS011;63879;46.064;14.532;2023-06-24T19:59:35;1.70;;;1.60;;
75285;SDS011;63879;46.064;14.532;2023-06-24T20:02:01;2.15;;;2.05;;
75285;SDS011;63879;46.064;14.532;2023-06-24T20:04:26;2.37;;;2.27;;
75285;SDS011;63879;46.064;14.532;2023-06-24T20:06:51;1.80;;;1.70;;
75285;SDS011;63879;46.064;14.532;2023-06-24T20:09:17;1.73;;;1.63;;
75285;SDS011;63879;46.064;14.532;2023-06-24T20:11:42;1.93;;;1.83;;
75285;SDS011;63879;46.064;14.532;2023-06-24T20:14:07;1.67;;;1.63;;
75285;SDS011;63879;46.064;14.532;2023-06-24T20:16:33;2.15;;;2.05;;
75285;SDS011;63879;46.064;14.532;2023-06-24T20:18:58;1.98;;;1.88;;
75285;SDS011;63879;46.064;14.532;2023-06-24T20:21:24;2.87;;;2.77;;
75285;SDS011;63879;46.064;14.532;2023-06-24T20:23:49;2.07;;;1.97;;
75285;SDS011;63879;46.064;14.532;2023-06-24T20:26:14;2.03;;;1.92;;
75285;SDS011;63879;46.064;14.532;2023-06-24T20:28:40;2.27;;;2.17;;
75285;SDS011;63879;46.064;14.532;2023-06-24T20:31:05;1.77;;;1.67;;
75285;SDS011;63879;46.064;14.532;2023-06-24T20:33:31;2.30;;;2.20;;
75285;SDS011;63879;46.064;14.532;2023-06-24T20:35:57;1.67;;;1.58;;
75285;SDS011;63879;46.064;14.532;2023-06-24T20:38:22;1.63;;;1.58;;